sensor_id;sensor_type;location;lat;lon;timestamp;P1;durP1;ratioP1;P2;durP2;ratioP2
20038;SDS011;21737;42.868;25.320;2024-03-08T00:00:00;7.90;;;3.03;;
20038;SDS011;21737;42.868;25.320;2024-03-08T00:02:35;7.47;;;3.15;;
20038;SDS011;21737;42.868;25.320;2024-03-08T00:05:03;4.65;;;1.95;;
20038;SDS011;21737;42.868;25.320;2024-03-08T00:07:30;5.63;;;2.58;;
20038;SDS011;21737;42.868;25.320;2024-03-08T00:09:58;5.45;;;2.40;;
20038;SDS011;21737;42.868;25.320;2024-03-08T00:12:25;6.93;;;2.92;;
20038;SDS011;21737;42.868;25.320;2024-03-08T00:14:54;5.15;;;2.47;;
20038;SDS011;21737;42.868;25.320;2024-03-08T00:17:22;5.72;;;2.72;;
20038;SDS011;21737;42.868;25.320;2024-03-08T00:19:48;6.43;;;2.80;;
20038;SDS011;21737;42.868;25.320;2024-03-08T00:22:16;8.05;;;2.95;;
20038;SDS011;21737;42.868;25.320;2024-03-08T00:24:42;6.05;;;2.95;;
20038;SDS011;21737;42.868;25.320;2024-03-08T00:27:09;4.38;;;1.80;;
20038;SDS011;21737;42.868;25.320;2024-03-08T00:29:36;4.97;;;2.22;;
20038;SDS011;21737;42.868;25.320;2024-03-08T00:32:04;6.68;;;3.00;;
20038;SDS011;21737;42.868;25.320;2024-03-08T00:34:30;5.78;;;2.92;;
20038;SDS011;21737;42.868;25.320;2024-03-08T00:36:58;5.20;;;2.15;;
20038;SDS011;21737;42.868;25.320;2024-03-08T00:39:24;4.13;;;1.85;;
20038;SDS011;21737;42.868;25.320;2024-03-08T00:41:51;4.20;;;2.25;;
20038;SDS011;21737;42.868;25.320;2024-03-08T00:44:17;4.90;;;2.05;;
20038;SDS011;21737;42.868;25.320;2024-03-08T00:46:43;4.18;;;2.45;;
20038;SDS011;21737;42.868;25.320;2024-03-08T00:49:08;4.45;;;1.63;;
20038;SDS011;21737;42.868;25.320;2024-03-08T00:51:34;5.47;;;2.38;;
20038;SDS011;21737;42.868;25.320;2024-03-08T00:54:01;5.05;;;2.33;;
20038;SDS011;21737;42.868;25.320;2024-03-08T00:56:27;5.15;;;2.63;;
20038;SDS011;21737;42.868;25.320;2024-03-08T00:58:55;5.32;;;2.17;;
20038;SDS011;21737;42.868;25.320;2024-03-08T01:01:21;3.80;;;1.98;;
20038;SDS011;21737;42.868;25.320;2024-03-08T01:03:48;3.67;;;1.63;;
20038;SDS011;21737;42.868;25.320;2024-03-08T01:06:15;3.58;;;1.70;;
20038;SDS011;21737;42.868;25.320;2024-03-08T01:08:41;5.45;;;2.50;;
20038;SDS011;21737;42.868;25.320;2024-03-08T01:11:08;4.20;;;1.80;;
20038;SDS011;21737;42.868;25.320;2024-03-08T01:13:35;5.93;;;2.13;;
20038;SDS011;21737;42.868;25.320;2024-03-08T01:16:02;5.78;;;2.28;;
20038;SDS011;21737;42.868;25.320;2024-03-08T01:18:30;4.47;;;2.22;;
20038;SDS011;21737;42.868;25.320;2024-03-08T01:20:57;4.20;;;2.00;;
20038;SDS011;21737;42.868;25.320;2024-03-08T01:23:23;6.13;;;2.30;;
20038;SDS011;21737;42.868;25.320;2024-03-08T01:25:49;5.10;;;2.25;;
20038;SDS011;21737;42.868;25.320;2024-03-08T01:28:23;6.85;;;2.50;;
20038;SDS011;21737;42.868;25.320;2024-03-08T01:30:50;6.20;;;2.65;;
20038;SDS011;21737;42.868;25.320;2024-03-08T01:33:22;3.83;;;1.88;;
20038;SDS011;21737;42.868;25.320;2024-03-08T01:35:52;3.40;;;1.63;;
20038;SDS011;21737;42.868;25.320;2024-03-08T01:38:21;5.28;;;2.25;;
20038;SDS011;21737;42.868;25.320;2024-03-08T01:40:47;5.10;;;2.47;;
20038;SDS011;21737;42.868;25.320;2024-03-08T01:45:48;4.38;;;1.95;;
20038;SDS011;21737;42.868;25.320;2024-03-08T01:48:14;3.65;;;1.65;;
20038;SDS011;21737;42.868;25.320;2024-03-08T01:50:44;3.10;;;1.30;;
20038;SDS011;21737;42.868;25.320;2024-03-08T01:53:11;5.60;;;1.85;;
20038;SDS011;21737;42.868;25.320;2024-03-08T01:55:40;3.28;;;1.50;;
20038;SDS011;21737;42.868;25.320;2024-03-08T01:58:09;4.60;;;2.20;;
20038;SDS011;21737;42.868;25.320;2024-03-08T02:00:45;3.47;;;1.50;;
20038;SDS011;21737;42.868;25.320;2024-03-08T02:05:43;4.65;;;1.73;;
20038;SDS011;21737;42.868;25.320;2024-03-08T02:08:09;3.00;;;1.88;;
20038;SDS011;21737;42.868;25.320;2024-03-08T02:10:41;4.40;;;2.17;;
20038;SDS011;21737;42.868;25.320;2024-03-08T02:13:07;4.43;;;2.33;;
20038;SDS011;21737;42.868;25.320;2024-03-08T02:15:53;6.63;;;3.33;;
20038;SDS011;21737;42.868;25.320;2024-03-08T02:18:20;6.35;;;2.85;;
20038;SDS011;21737;42.868;25.320;2024-03-08T02:20:49;10.60;;;2.70;;
20038;SDS011;21737;42.868;25.320;2024-03-08T02:23:18;4.10;;;2.13;;
20038;SDS011;21737;42.868;25.320;2024-03-08T02:25:45;6.60;;;2.72;;
20038;SDS011;21737;42.868;25.320;2024-03-08T02:28:13;4.10;;;1.83;;
20038;SDS011;21737;42.868;25.320;2024-03-08T02:30:40;5.03;;;2.13;;
20038;SDS011;21737;42.868;25.320;2024-03-08T02:33:07;5.80;;;2.40;;
20038;SDS011;21737;42.868;25.320;2024-03-08T02:35:36;5.88;;;2.65;;
20038;SDS011;21737;42.868;25.320;2024-03-08T02:38:03;7.25;;;2.85;;
20038;SDS011;21737;42.868;25.320;2024-03-08T02:40:30;6.47;;;2.47;;
20038;SDS011;21737;42.868;25.320;2024-03-08T02:42:58;4.15;;;2.33;;
20038;SDS011;21737;42.868;25.320;2024-03-08T02:45:26;7.78;;;3.22;;
20038;SDS011;21737;42.868;25.320;2024-03-08T02:47:53;6.20;;;2.80;;
20038;SDS011;21737;42.868;25.320;2024-03-08T02:50:18;5.40;;;2.05;;
20038;SDS011;21737;42.868;25.320;2024-03-08T02:52:44;3.72;;;1.80;;
20038;SDS011;21737;42.868;25.320;2024-03-08T02:55:11;5.07;;;1.90;;
20038;SDS011;21737;42.868;25.320;2024-03-08T02:57:40;5.82;;;2.17;;
20038;SDS011;21737;42.868;25.320;2024-03-08T03:00:08;2.90;;;1.52;;
20038;SDS011;21737;42.868;25.320;2024-03-08T03:02:34;5.38;;;2.72;;
20038;SDS011;21737;42.868;25.320;2024-03-08T03:05:02;5.88;;;2.47;;
20038;SDS011;21737;42.868;25.320;2024-03-08T03:07:33;4.78;;;2.10;;
20038;SDS011;21737;42.868;25.320;2024-03-08T03:09:59;4.50;;;2.38;;
20038;SDS011;21737;42.868;25.320;2024-03-08T03:12:30;4.55;;;2.22;;
20038;SDS011;21737;42.868;25.320;2024-03-08T03:14:59;4.65;;;1.92;;
20038;SDS011;21737;42.868;25.320;2024-03-08T03:17:25;5.38;;;2.25;;
20038;SDS011;21737;42.868;25.320;2024-03-08T03:19:52;4.22;;;2.20;;
20038;SDS011;21737;42.868;25.320;2024-03-08T03:22:18;6.80;;;2.53;;
20038;SDS011;21737;42.868;25.320;2024-03-08T03:24:46;5.43;;;2.40;;
20038;SDS011;21737;42.868;25.320;2024-03-08T03:27:13;6.18;;;2.83;;
20038;SDS011;21737;42.868;25.320;2024-03-08T03:29:41;5.43;;;2.25;;
20038;SDS011;21737;42.868;25.320;2024-03-08T03:32:13;5.28;;;2.33;;
20038;SDS011;21737;42.868;25.320;2024-03-08T03:34:42;6.28;;;2.38;;
20038;SDS011;21737;42.868;25.320;2024-03-08T03:37:09;4.88;;;2.10;;
20038;SDS011;21737;42.868;25.320;2024-03-08T03:39:40;3.55;;;1.83;;
20038;SDS011;21737;42.868;25.320;2024-03-08T03:42:17;3.17;;;1.60;;
20038;SDS011;21737;42.868;25.320;2024-03-08T03:44:47;4.68;;;1.35;;
20038;SDS011;21737;42.868;25.320;2024-03-08T03:47:14;4.18;;;1.70;;
20038;SDS011;21737;42.868;25.320;2024-03-08T03:49:41;3.75;;;1.88;;
20038;SDS011;21737;42.868;25.320;2024-03-08T03:52:08;4.25;;;2.00;;
20038;SDS011;21737;42.868;25.320;2024-03-08T03:54:36;4.00;;;2.03;;
20038;SDS011;21737;42.868;25.320;2024-03-08T03:57:04;4.60;;;2.55;;
20038;SDS011;21737;42.868;25.320;2024-03-08T03:59:30;7.85;;;4.28;;
20038;SDS011;21737;42.868;25.320;2024-03-08T04:01:57;5.43;;;2.95;;
20038;SDS011;21737;42.868;25.320;2024-03-08T04:04:23;4.85;;;2.00;;
20038;SDS011;21737;42.868;25.320;2024-03-08T04:06:51;3.90;;;2.15;;
20038;SDS011;21737;42.868;25.320;2024-03-08T04:09:17;3.47;;;1.60;;
20038;SDS011;21737;42.868;25.320;2024-03-08T04:11:45;3.75;;;1.73;;
20038;SDS011;21737;42.868;25.320;2024-03-08T04:14:11;4.65;;;1.65;;
20038;SDS011;21737;42.868;25.320;2024-03-08T04:16:38;4.15;;;1.58;;
20038;SDS011;21737;42.868;25.320;2024-03-08T04:19:04;3.20;;;1.42;;
20038;SDS011;21737;42.868;25.320;2024-03-08T04:21:30;3.40;;;1.10;;
20038;SDS011;21737;42.868;25.320;2024-03-08T04:23:57;2.13;;;0.90;;
20038;SDS011;21737;42.868;25.320;2024-03-08T04:26:23;3.40;;;1.35;;
20038;SDS011;21737;42.868;25.320;2024-03-08T04:28:49;2.47;;;0.90;;
20038;SDS011;21737;42.868;25.320;2024-03-08T04:31:15;3.47;;;1.38;;
20038;SDS011;21737;42.868;25.320;2024-03-08T04:33:41;2.65;;;1.30;;
20038;SDS011;21737;42.868;25.320;2024-03-08T04:36:07;2.95;;;1.48;;
20038;SDS011;21737;42.868;25.320;2024-03-08T04:38:33;2.78;;;1.17;;
20038;SDS011;21737;42.868;25.320;2024-03-08T04:41:00;2.45;;;1.13;;
20038;SDS011;21737;42.868;25.320;2024-03-08T04:43:27;4.40;;;2.30;;
20038;SDS011;21737;42.868;25.320;2024-03-08T04:45:55;2.35;;;1.05;;
20038;SDS011;21737;42.868;25.320;2024-03-08T04:48:21;2.70;;;1.38;;
20038;SDS011;21737;42.868;25.320;2024-03-08T04:50:47;3.25;;;1.67;;
20038;SDS011;21737;42.868;25.320;2024-03-08T04:53:14;4.97;;;2.67;;
20038;SDS011;21737;42.868;25.320;2024-03-08T04:55:40;5.70;;;1.70;;
20038;SDS011;21737;42.868;25.320;2024-03-08T04:58:06;5.35;;;2.13;;
20038;SDS011;21737;42.868;25.320;2024-03-08T05:00:33;4.78;;;2.15;;
20038;SDS011;21737;42.868;25.320;2024-03-08T05:02:58;7.22;;;2.90;;
20038;SDS011;21737;42.868;25.320;2024-03-08T05:05:24;4.43;;;1.90;;
20038;SDS011;21737;42.868;25.320;2024-03-08T05:07:51;4.90;;;2.28;;
20038;SDS011;21737;42.868;25.320;2024-03-08T05:10:17;6.25;;;2.85;;
20038;SDS011;21737;42.868;25.320;2024-03-08T05:12:44;4.15;;;2.20;;
20038;SDS011;21737;42.868;25.320;2024-03-08T05:15:17;6.53;;;3.20;;
20038;SDS011;21737;42.868;25.320;2024-03-08T05:17:43;5.30;;;3.08;;
20038;SDS011;21737;42.868;25.320;2024-03-08T05:20:09;4.88;;;2.40;;
20038;SDS011;21737;42.868;25.320;2024-03-08T05:22:40;5.15;;;2.85;;
20038;SDS011;21737;42.868;25.320;2024-03-08T05:25:06;6.88;;;3.58;;
20038;SDS011;21737;42.868;25.320;2024-03-08T05:27:34;4.75;;;2.58;;
20038;SDS011;21737;42.868;25.320;2024-03-08T05:30:02;5.18;;;2.47;;
20038;SDS011;21737;42.868;25.320;2024-03-08T05:32:30;5.95;;;2.70;;
20038;SDS011;21737;42.868;25.320;2024-03-08T05:34:57;5.03;;;2.95;;
20038;SDS011;21737;42.868;25.320;2024-03-08T05:37:23;6.22;;;3.25;;
20038;SDS011;21737;42.868;25.320;2024-03-08T05:39:49;5.32;;;2.35;;
20038;SDS011;21737;42.868;25.320;2024-03-08T05:42:15;7.38;;;3.42;;
20038;SDS011;21737;42.868;25.320;2024-03-08T05:44:41;6.80;;;2.92;;
20038;SDS011;21737;42.868;25.320;2024-03-08T05:47:08;9.50;;;5.20;;
20038;SDS011;21737;42.868;25.320;2024-03-08T05:49:35;10.48;;;4.20;;
20038;SDS011;21737;42.868;25.320;2024-03-08T05:52:02;11.07;;;4.85;;
20038;SDS011;21737;42.868;25.320;2024-03-08T05:54:28;10.23;;;4.95;;
20038;SDS011;21737;42.868;25.320;2024-03-08T05:56:55;11.27;;;5.55;;
20038;SDS011;21737;42.868;25.320;2024-03-08T05:59:22;14.55;;;5.97;;
20038;SDS011;21737;42.868;25.320;2024-03-08T06:01:48;12.25;;;6.15;;
20038;SDS011;21737;42.868;25.320;2024-03-08T06:04:16;7.28;;;4.10;;
20038;SDS011;21737;42.868;25.320;2024-03-08T06:06:43;9.98;;;5.82;;
20038;SDS011;21737;42.868;25.320;2024-03-08T06:09:09;13.82;;;5.10;;
20038;SDS011;21737;42.868;25.320;2024-03-08T06:11:37;13.07;;;6.00;;
20038;SDS011;21737;42.868;25.320;2024-03-08T06:14:04;16.70;;;7.72;;
20038;SDS011;21737;42.868;25.320;2024-03-08T06:16:31;15.15;;;5.97;;
20038;SDS011;21737;42.868;25.320;2024-03-08T06:19:02;13.50;;;7.28;;
20038;SDS011;21737;42.868;25.320;2024-03-08T06:21:30;11.55;;;6.03;;
20038;SDS011;21737;42.868;25.320;2024-03-08T06:23:57;14.18;;;6.32;;
20038;SDS011;21737;42.868;25.320;2024-03-08T06:26:23;14.20;;;6.20;;
20038;SDS011;21737;42.868;25.320;2024-03-08T06:28:50;11.25;;;5.90;;
20038;SDS011;21737;42.868;25.320;2024-03-08T06:31:16;12.27;;;5.75;;
20038;SDS011;21737;42.868;25.320;2024-03-08T06:33:43;13.80;;;6.88;;
20038;SDS011;21737;42.868;25.320;2024-03-08T06:36:11;15.35;;;6.78;;
20038;SDS011;21737;42.868;25.320;2024-03-08T06:38:40;7.65;;;4.00;;
20038;SDS011;21737;42.868;25.320;2024-03-08T06:41:13;10.23;;;4.70;;
20038;SDS011;21737;42.868;25.320;2024-03-08T06:43:44;13.80;;;6.20;;
20038;SDS011;21737;42.868;25.320;2024-03-08T06:46:11;15.25;;;6.25;;
20038;SDS011;21737;42.868;25.320;2024-03-08T06:48:42;17.83;;;7.32;;
20038;SDS011;21737;42.868;25.320;2024-03-08T06:51:09;13.88;;;6.07;;
20038;SDS011;21737;42.868;25.320;2024-03-08T06:53:36;9.52;;;5.40;;
20038;SDS011;21737;42.868;25.320;2024-03-08T06:56:04;12.23;;;6.07;;
20038;SDS011;21737;42.868;25.320;2024-03-08T06:58:31;14.95;;;6.25;;
20038;SDS011;21737;42.868;25.320;2024-03-08T07:00:59;12.43;;;5.43;;
20038;SDS011;21737;42.868;25.320;2024-03-08T07:03:29;11.13;;;5.13;;
20038;SDS011;21737;42.868;25.320;2024-03-08T07:05:56;9.82;;;6.22;;
20038;SDS011;21737;42.868;25.320;2024-03-08T07:08:26;9.52;;;6.22;;
20038;SDS011;21737;42.868;25.320;2024-03-08T07:10:54;11.55;;;5.35;;
20038;SDS011;21737;42.868;25.320;2024-03-08T07:13:20;10.27;;;4.55;;
20038;SDS011;21737;42.868;25.320;2024-03-08T07:15:47;12.15;;;5.85;;
20038;SDS011;21737;42.868;25.320;2024-03-08T07:18:14;11.60;;;5.28;;
20038;SDS011;21737;42.868;25.320;2024-03-08T07:20:41;10.70;;;4.30;;
20038;SDS011;21737;42.868;25.320;2024-03-08T07:23:10;11.02;;;3.83;;
20038;SDS011;21737;42.868;25.320;2024-03-08T07:25:35;10.35;;;5.38;;
20038;SDS011;21737;42.868;25.320;2024-03-08T07:28:04;6.78;;;3.40;;
20038;SDS011;21737;42.868;25.320;2024-03-08T07:30:31;10.30;;;5.88;;
20038;SDS011;21737;42.868;25.320;2024-03-08T07:33:11;12.18;;;5.85;;
20038;SDS011;21737;42.868;25.320;2024-03-08T07:35:38;8.98;;;4.85;;
20038;SDS011;21737;42.868;25.320;2024-03-08T07:38:09;9.93;;;5.18;;
20038;SDS011;21737;42.868;25.320;2024-03-08T07:43:11;10.65;;;4.63;;
20038;SDS011;21737;42.868;25.320;2024-03-08T07:45:37;11.70;;;4.30;;
20038;SDS011;21737;42.868;25.320;2024-03-08T07:48:04;15.40;;;5.93;;
20038;SDS011;21737;42.868;25.320;2024-03-08T07:53:09;5.95;;;3.72;;
20038;SDS011;21737;42.868;25.320;2024-03-08T07:55:36;9.00;;;3.90;;
20038;SDS011;21737;42.868;25.320;2024-03-08T07:58:02;10.30;;;4.82;;
20038;SDS011;21737;42.868;25.320;2024-03-08T08:00:28;10.52;;;6.25;;
20038;SDS011;21737;42.868;25.320;2024-03-08T08:02:58;14.57;;;8.02;;
20038;SDS011;21737;42.868;25.320;2024-03-08T08:05:24;8.32;;;4.70;;
20038;SDS011;21737;42.868;25.320;2024-03-08T08:07:52;12.93;;;5.50;;
20038;SDS011;21737;42.868;25.320;2024-03-08T08:10:18;10.63;;;5.15;;
20038;SDS011;21737;42.868;25.320;2024-03-08T08:12:54;14.20;;;6.20;;
20038;SDS011;21737;42.868;25.320;2024-03-08T08:15:23;10.98;;;5.50;;
20038;SDS011;21737;42.868;25.320;2024-03-08T08:17:51;9.68;;;4.68;;
20038;SDS011;21737;42.868;25.320;2024-03-08T08:20:20;11.00;;;4.90;;
20038;SDS011;21737;42.868;25.320;2024-03-08T08:22:47;12.60;;;6.30;;
20038;SDS011;21737;42.868;25.320;2024-03-08T08:25:13;10.77;;;4.88;;
20038;SDS011;21737;42.868;25.320;2024-03-08T08:27:47;9.98;;;5.30;;
20038;SDS011;21737;42.868;25.320;2024-03-08T08:30:13;15.10;;;6.47;;
20038;SDS011;21737;42.868;25.320;2024-03-08T08:32:39;12.43;;;7.22;;
20038;SDS011;21737;42.868;25.320;2024-03-08T08:35:08;14.77;;;7.20;;
20038;SDS011;21737;42.868;25.320;2024-03-08T08:37:35;10.23;;;5.05;;
20038;SDS011;21737;42.868;25.320;2024-03-08T08:40:05;11.02;;;5.50;;
20038;SDS011;21737;42.868;25.320;2024-03-08T08:42:36;14.13;;;6.45;;
20038;SDS011;21737;42.868;25.320;2024-03-08T08:45:05;16.63;;;6.18;;
20038;SDS011;21737;42.868;25.320;2024-03-08T08:47:37;15.05;;;6.88;;
20038;SDS011;21737;42.868;25.320;2024-03-08T08:50:04;9.88;;;4.78;;
20038;SDS011;21737;42.868;25.320;2024-03-08T08:52:32;10.38;;;5.18;;
20038;SDS011;21737;42.868;25.320;2024-03-08T08:55:00;12.32;;;5.97;;
20038;SDS011;21737;42.868;25.320;2024-03-08T08:57:29;9.48;;;5.80;;
20038;SDS011;21737;42.868;25.320;2024-03-08T08:59:57;10.25;;;5.50;;
20038;SDS011;21737;42.868;25.320;2024-03-08T09:02:23;12.05;;;5.90;;
20038;SDS011;21737;42.868;25.320;2024-03-08T09:04:49;12.02;;;6.05;;
20038;SDS011;21737;42.868;25.320;2024-03-08T09:07:15;14.45;;;6.30;;
20038;SDS011;21737;42.868;25.320;2024-03-08T09:09:46;12.50;;;6.20;;
20038;SDS011;21737;42.868;25.320;2024-03-08T09:12:11;12.75;;;6.00;;
20038;SDS011;21737;42.868;25.320;2024-03-08T09:14:41;13.23;;;5.82;;
20038;SDS011;21737;42.868;25.320;2024-03-08T09:17:08;12.18;;;5.90;;
20038;SDS011;21737;42.868;25.320;2024-03-08T09:19:37;10.02;;;5.45;;
20038;SDS011;21737;42.868;25.320;2024-03-08T09:22:06;13.07;;;6.20;;
20038;SDS011;21737;42.868;25.320;2024-03-08T09:24:33;13.27;;;5.82;;
20038;SDS011;21737;42.868;25.320;2024-03-08T09:26:59;11.10;;;5.45;;
20038;SDS011;21737;42.868;25.320;2024-03-08T09:29:26;14.20;;;5.68;;
20038;SDS011;21737;42.868;25.320;2024-03-08T09:31:52;9.75;;;5.20;;
20038;SDS011;21737;42.868;25.320;2024-03-08T09:34:18;12.77;;;5.45;;
20038;SDS011;21737;42.868;25.320;2024-03-08T09:36:44;12.95;;;5.80;;
20038;SDS011;21737;42.868;25.320;2024-03-08T09:39:10;10.88;;;5.07;;
20038;SDS011;21737;42.868;25.320;2024-03-08T09:41:43;13.13;;;7.15;;
20038;SDS011;21737;42.868;25.320;2024-03-08T09:44:10;12.43;;;5.75;;
20038;SDS011;21737;42.868;25.320;2024-03-08T09:49:06;10.95;;;5.40;;
20038;SDS011;21737;42.868;25.320;2024-03-08T09:51:33;11.88;;;5.95;;
20038;SDS011;21737;42.868;25.320;2024-03-08T09:54:05;12.27;;;5.97;;
20038;SDS011;21737;42.868;25.320;2024-03-08T09:56:32;17.77;;;7.70;;
20038;SDS011;21737;42.868;25.320;2024-03-08T09:59:01;13.32;;;7.43;;
20038;SDS011;21737;42.868;25.320;2024-03-08T10:01:37;10.25;;;5.72;;
20038;SDS011;21737;42.868;25.320;2024-03-08T10:04:07;10.30;;;5.85;;
20038;SDS011;21737;42.868;25.320;2024-03-08T10:06:36;14.93;;;6.88;;
20038;SDS011;21737;42.868;25.320;2024-03-08T10:09:03;13.82;;;6.32;;
20038;SDS011;21737;42.868;25.320;2024-03-08T10:11:32;12.63;;;5.22;;
20038;SDS011;21737;42.868;25.320;2024-03-08T10:13:59;15.85;;;7.60;;
20038;SDS011;21737;42.868;25.320;2024-03-08T10:16:27;13.20;;;6.40;;
20038;SDS011;21737;42.868;25.320;2024-03-08T10:18:55;13.25;;;6.70;;
20038;SDS011;21737;42.868;25.320;2024-03-08T10:21:22;11.98;;;5.90;;
20038;SDS011;21737;42.868;25.320;2024-03-08T10:23:48;11.02;;;5.82;;
20038;SDS011;21737;42.868;25.320;2024-03-08T10:26:15;13.10;;;6.72;;
20038;SDS011;21737;42.868;25.320;2024-03-08T10:28:55;12.60;;;6.97;;
20038;SDS011;21737;42.868;25.320;2024-03-08T10:31:25;10.68;;;5.43;;
20038;SDS011;21737;42.868;25.320;2024-03-08T10:33:52;13.95;;;6.75;;
20038;SDS011;21737;42.868;25.320;2024-03-08T10:36:18;23.95;;;9.75;;
20038;SDS011;21737;42.868;25.320;2024-03-08T10:38:44;16.73;;;7.55;;
20038;SDS011;21737;42.868;25.320;2024-03-08T10:41:16;22.17;;;8.27;;
20038;SDS011;21737;42.868;25.320;2024-03-08T10:43:51;15.45;;;6.70;;
20038;SDS011;21737;42.868;25.320;2024-03-08T10:49:26;30.00;;;12.77;;
20038;SDS011;21737;42.868;25.320;2024-03-08T10:52:01;15.73;;;6.55;;
20038;SDS011;21737;42.868;25.320;2024-03-08T10:54:30;16.45;;;7.30;;
20038;SDS011;21737;42.868;25.320;2024-03-08T10:56:59;15.70;;;7.50;;
20038;SDS011;21737;42.868;25.320;2024-03-08T10:59:28;17.02;;;8.40;;
20038;SDS011;21737;42.868;25.320;2024-03-08T11:01:55;20.13;;;7.45;;
20038;SDS011;21737;42.868;25.320;2024-03-08T11:04:21;17.80;;;7.82;;
20038;SDS011;21737;42.868;25.320;2024-03-08T11:06:49;14.77;;;6.30;;
20038;SDS011;21737;42.868;25.320;2024-03-08T11:09:27;21.92;;;9.45;;
20038;SDS011;21737;42.868;25.320;2024-03-08T11:15:01;11.05;;;4.35;;
20038;SDS011;21737;42.868;25.320;2024-03-08T11:20:14;18.35;;;8.88;;
20038;SDS011;21737;42.868;25.320;2024-03-08T11:22:43;16.83;;;6.55;;
20038;SDS011;21737;42.868;25.320;2024-03-08T11:28:24;23.95;;;9.02;;
20038;SDS011;21737;42.868;25.320;2024-03-08T11:33:26;22.15;;;9.52;;
20038;SDS011;21737;42.868;25.320;2024-03-08T11:36:11;19.98;;;7.30;;
20038;SDS011;21737;42.868;25.320;2024-03-08T11:38:42;21.45;;;9.00;;
20038;SDS011;21737;42.868;25.320;2024-03-08T11:41:10;19.60;;;8.55;;
20038;SDS011;21737;42.868;25.320;2024-03-08T11:43:42;20.25;;;8.05;;
20038;SDS011;21737;42.868;25.320;2024-03-08T11:46:08;20.65;;;8.35;;
20038;SDS011;21737;42.868;25.320;2024-03-08T11:48:37;14.73;;;6.80;;
20038;SDS011;21737;42.868;25.320;2024-03-08T11:51:04;14.10;;;5.65;;
20038;SDS011;21737;42.868;25.320;2024-03-08T11:53:33;21.02;;;8.98;;
20038;SDS011;21737;42.868;25.320;2024-03-08T11:56:13;21.13;;;8.60;;
20038;SDS011;21737;42.868;25.320;2024-03-08T11:58:41;19.73;;;8.07;;
20038;SDS011;21737;42.868;25.320;2024-03-08T12:01:17;21.02;;;8.98;;
20038;SDS011;21737;42.868;25.320;2024-03-08T12:03:44;21.58;;;9.23;;
20038;SDS011;21737;42.868;25.320;2024-03-08T12:06:19;27.23;;;11.13;;
20038;SDS011;21737;42.868;25.320;2024-03-08T12:08:46;19.67;;;9.98;;
20038;SDS011;21737;42.868;25.320;2024-03-08T12:11:18;24.20;;;9.23;;
20038;SDS011;21737;42.868;25.320;2024-03-08T12:13:48;19.73;;;9.75;;
20038;SDS011;21737;42.868;25.320;2024-03-08T12:16:19;19.17;;;9.05;;
20038;SDS011;21737;42.868;25.320;2024-03-08T12:18:48;18.98;;;8.35;;
20038;SDS011;21737;42.868;25.320;2024-03-08T12:21:17;20.55;;;7.97;;
20038;SDS011;21737;42.868;25.320;2024-03-08T12:23:46;14.95;;;8.05;;
20038;SDS011;21737;42.868;25.320;2024-03-08T12:26:16;14.18;;;6.80;;
20038;SDS011;21737;42.868;25.320;2024-03-08T12:28:44;25.17;;;11.32;;
20038;SDS011;21737;42.868;25.320;2024-03-08T12:31:16;23.08;;;9.23;;
20038;SDS011;21737;42.868;25.320;2024-03-08T12:33:49;12.65;;;6.35;;
20038;SDS011;21737;42.868;25.320;2024-03-08T12:36:21;13.20;;;7.72;;
20038;SDS011;21737;42.868;25.320;2024-03-08T12:38:47;13.63;;;6.75;;
20038;SDS011;21737;42.868;25.320;2024-03-08T12:41:16;17.98;;;7.55;;
20038;SDS011;21737;42.868;25.320;2024-03-08T12:43:45;24.60;;;12.07;;
20038;SDS011;21737;42.868;25.320;2024-03-08T12:46:16;22.20;;;9.65;;
20038;SDS011;21737;42.868;25.320;2024-03-08T12:48:43;21.90;;;9.27;;
20038;SDS011;21737;42.868;25.320;2024-03-08T12:51:19;14.35;;;7.43;;
20038;SDS011;21737;42.868;25.320;2024-03-08T12:53:47;18.13;;;8.90;;
20038;SDS011;21737;42.868;25.320;2024-03-08T12:56:33;17.27;;;7.40;;
20038;SDS011;21737;42.868;25.320;2024-03-08T12:59:00;17.00;;;7.78;;
20038;SDS011;21737;42.868;25.320;2024-03-08T13:01:31;16.80;;;7.25;;
20038;SDS011;21737;42.868;25.320;2024-03-08T13:04:04;16.77;;;6.88;;
20038;SDS011;21737;42.868;25.320;2024-03-08T13:06:41;15.35;;;7.10;;
20038;SDS011;21737;42.868;25.320;2024-03-08T13:09:07;14.50;;;6.28;;
20038;SDS011;21737;42.868;25.320;2024-03-08T13:11:33;15.68;;;6.85;;
20038;SDS011;21737;42.868;25.320;2024-03-08T13:14:02;16.88;;;7.60;;
20038;SDS011;21737;42.868;25.320;2024-03-08T13:16:31;16.50;;;6.40;;
20038;SDS011;21737;42.868;25.320;2024-03-08T13:18:57;13.57;;;5.18;;
20038;SDS011;21737;42.868;25.320;2024-03-08T13:21:24;13.18;;;6.60;;
20038;SDS011;21737;42.868;25.320;2024-03-08T13:23:50;19.38;;;9.00;;
20038;SDS011;21737;42.868;25.320;2024-03-08T13:26:18;17.45;;;7.53;;
20038;SDS011;21737;42.868;25.320;2024-03-08T13:28:49;13.85;;;5.30;;
20038;SDS011;21737;42.868;25.320;2024-03-08T13:31:19;13.35;;;5.72;;
20038;SDS011;21737;42.868;25.320;2024-03-08T13:33:45;17.05;;;7.47;;
20038;SDS011;21737;42.868;25.320;2024-03-08T13:36:16;15.23;;;6.78;;
20038;SDS011;21737;42.868;25.320;2024-03-08T13:38:49;15.93;;;7.50;;
20038;SDS011;21737;42.868;25.320;2024-03-08T13:41:17;18.85;;;7.72;;
20038;SDS011;21737;42.868;25.320;2024-03-08T13:43:46;19.33;;;6.07;;
20038;SDS011;21737;42.868;25.320;2024-03-08T13:46:16;18.73;;;8.88;;
20038;SDS011;21737;42.868;25.320;2024-03-08T13:48:43;18.95;;;9.07;;
20038;SDS011;21737;42.868;25.320;2024-03-08T13:51:09;17.70;;;7.85;;
20038;SDS011;21737;42.868;25.320;2024-03-08T13:53:38;17.50;;;8.52;;
20038;SDS011;21737;42.868;25.320;2024-03-08T13:56:06;21.42;;;9.45;;
20038;SDS011;21737;42.868;25.320;2024-03-08T13:58:36;23.02;;;9.32;;
20038;SDS011;21737;42.868;25.320;2024-03-08T14:01:06;20.50;;;8.40;;
20038;SDS011;21737;42.868;25.320;2024-03-08T14:03:37;20.52;;;10.20;;
20038;SDS011;21737;42.868;25.320;2024-03-08T14:06:06;23.38;;;9.93;;
20038;SDS011;21737;42.868;25.320;2024-03-08T14:08:32;21.42;;;11.13;;
20038;SDS011;21737;42.868;25.320;2024-03-08T14:10:58;18.27;;;7.70;;
20038;SDS011;21737;42.868;25.320;2024-03-08T14:13:25;19.20;;;7.95;;
20038;SDS011;21737;42.868;25.320;2024-03-08T14:15:52;28.40;;;10.73;;
20038;SDS011;21737;42.868;25.320;2024-03-08T14:18:19;20.50;;;9.07;;
20038;SDS011;21737;42.868;25.320;2024-03-08T14:20:46;24.52;;;10.25;;
20038;SDS011;21737;42.868;25.320;2024-03-08T14:23:12;21.80;;;10.30;;
20038;SDS011;21737;42.868;25.320;2024-03-08T14:25:38;18.80;;;8.63;;
20038;SDS011;21737;42.868;25.320;2024-03-08T14:28:04;23.85;;;10.02;;
20038;SDS011;21737;42.868;25.320;2024-03-08T14:30:33;25.67;;;9.70;;
20038;SDS011;21737;42.868;25.320;2024-03-08T14:33:07;30.35;;;11.32;;
20038;SDS011;21737;42.868;25.320;2024-03-08T14:35:39;29.45;;;12.18;;
20038;SDS011;21737;42.868;25.320;2024-03-08T14:38:06;26.42;;;11.50;;
20038;SDS011;21737;42.868;25.320;2024-03-08T14:40:36;26.33;;;11.05;;
20038;SDS011;21737;42.868;25.320;2024-03-08T14:43:05;29.83;;;11.88;;
20038;SDS011;21737;42.868;25.320;2024-03-08T14:45:32;29.00;;;12.75;;
20038;SDS011;21737;42.868;25.320;2024-03-08T14:47:58;25.00;;;9.55;;
20038;SDS011;21737;42.868;25.320;2024-03-08T14:50:25;29.58;;;11.20;;
20038;SDS011;21737;42.868;25.320;2024-03-08T14:52:51;32.78;;;12.68;;
20038;SDS011;21737;42.868;25.320;2024-03-08T14:55:20;39.15;;;16.02;;
20038;SDS011;21737;42.868;25.320;2024-03-08T14:57:51;45.55;;;15.93;;